createdAt,value
2018-06-17T00:01:53.176Z,14.60
2018-06-17T00:04:23.562Z,14.60
2018-06-17T00:06:53.625Z,14.60
2018-06-17T00:09:23.787Z,14.60
2018-06-17T00:11:54.084Z,14.60
2018-06-17T00:14:24.275Z,14.60
2018-06-17T00:16:54.553Z,14.60
2018-06-17T00:19:24.584Z,14.60
2018-06-17T00:21:54.616Z,14.60
2018-06-17T00:24:24.675Z,14.50
2018-06-17T00:26:54.824Z,14.50
2018-06-17T00:29:24.895Z,14.50
2018-06-17T00:31:54.920Z,14.50
2018-06-17T00:34:24.944Z,14.50
2018-06-17T00:36:55.048Z,14.50
2018-06-17T00:39:25.152Z,14.40
2018-06-17T00:41:55.237Z,14.50
2018-06-17T00:44:25.656Z,14.40
2018-06-17T00:46:55.752Z,14.30
2018-06-17T00:49:26.040Z,14.40
2018-06-17T00:51:56.280Z,14.30
2018-06-17T00:54:26.580Z,14.30
2018-06-17T00:57:07.948Z,14.30
2018-06-17T00:59:38.001Z,14.30
2018-06-17T01:02:08.251Z,14.30
2018-06-17T01:07:07.849Z,14.30
2018-06-17T01:09:37.997Z,14.30
2018-06-17T01:12:08.116Z,14.30
2018-06-17T01:14:38.340Z,14.30
2018-06-17T01:17:08.412Z,14.40
2018-06-17T01:19:38.547Z,14.40
2018-06-17T01:22:08.815Z,14.50
2018-06-17T01:24:38.932Z,14.50
2018-06-17T01:27:09.139Z,14.50
2018-06-17T01:29:39.330Z,14.50
2018-06-17T01:32:09.697Z,14.50
2018-06-17T01:34:39.784Z,14.50
2018-06-17T01:37:09.989Z,14.50
2018-06-17T01:42:09.524Z,14.40
2018-06-17T01:44:39.908Z,14.40
2018-06-17T01:47:10.045Z,14.30
2018-06-17T01:49:40.167Z,14.30
2018-06-17T01:52:10.300Z,14.30
2018-06-17T01:54:40.675Z,14.20
2018-06-17T01:57:10.910Z,14.20
2018-06-17T01:59:41.028Z,14.10
2018-06-17T02:02:11.140Z,14.10
2018-06-17T02:04:46.446Z,14.10
2018-06-17T02:07:21.732Z,14.00
2018-06-17T02:12:26.815Z,13.90
2018-06-17T02:14:59.240Z,13.90
2018-06-17T02:19:59.148Z,13.80
2018-06-17T02:22:29.211Z,13.90
2018-06-17T02:24:59.288Z,13.80
2018-06-17T02:27:29.540Z,13.90
2018-06-17T02:29:59.624Z,13.90
2018-06-17T02:32:29.972Z,13.80
2018-06-17T02:35:00.072Z,13.80
2018-06-17T02:37:30.388Z,13.80
2018-06-17T02:40:00.452Z,13.80
2018-06-17T02:42:30.568Z,13.80
2018-06-17T02:45:05.873Z,13.90
2018-06-17T02:47:41.320Z,13.90
2018-06-17T02:50:16.708Z,13.90
2018-06-17T02:52:52.249Z,13.80
2018-06-17T02:55:22.508Z,13.90
2018-06-17T02:57:52.834Z,13.90
2018-06-17T03:00:22.866Z,13.90
2018-06-17T03:02:53.344Z,13.90
2018-06-17T03:05:23.494Z,13.90
2018-06-17T03:07:53.864Z,14.00
2018-06-17T03:10:23.964Z,14.10
2018-06-17T03:12:54.468Z,14.10
2018-06-17T03:15:24.595Z,14.10
2018-06-17T03:17:54.872Z,14.10
2018-06-17T03:20:25.188Z,14.10
2018-06-17T03:22:55.497Z,14.10
2018-06-17T03:25:30.976Z,14.10
2018-06-17T03:28:06.399Z,14.10
2018-06-17T03:33:16.604Z,14.30
2018-06-17T03:35:52.000Z,14.30
2018-06-17T03:40:52.004Z,14.50
2018-06-17T03:43:22.135Z,14.50
2018-06-17T03:45:52.288Z,14.60
2018-06-17T03:48:22.376Z,14.60
2018-06-17T03:50:52.468Z,14.80
2018-06-17T03:53:22.527Z,14.80
2018-06-17T03:55:52.596Z,14.90
2018-06-17T03:58:22.760Z,15.10
2018-06-17T04:00:52.856Z,15.20
2018-06-17T04:03:22.939Z,15.30
2018-06-17T04:05:53.277Z,15.40
2018-06-17T04:08:23.340Z,15.50
2018-06-17T04:10:53.495Z,15.70
2018-06-17T04:13:23.674Z,15.70
2018-06-17T04:15:53.909Z,15.80
2018-06-17T04:18:24.010Z,15.80
2018-06-17T04:20:54.117Z,15.90
2018-06-17T04:23:24.211Z,15.90
2018-06-17T04:25:54.364Z,16.00
2018-06-17T04:28:24.476Z,16.10
2018-06-17T04:30:54.591Z,16.20
2018-06-17T04:33:24.680Z,16.30
2018-06-17T04:35:54.812Z,16.40
2018-06-17T04:38:24.944Z,16.40
2018-06-17T04:40:55.009Z,16.50
2018-06-17T04:43:25.104Z,16.60
2018-06-17T04:45:55.213Z,16.70
2018-06-17T04:48:25.589Z,16.70
2018-06-17T04:50:55.638Z,16.70
2018-06-17T04:53:25.737Z,16.70
2018-06-17T04:55:55.816Z,16.70
2018-06-17T04:58:25.955Z,16.70
2018-06-17T05:00:56.113Z,16.70
2018-06-17T05:03:26.277Z,16.80
2018-06-17T05:05:56.340Z,16.90
2018-06-17T05:08:26.484Z,16.80
2018-06-17T05:10:56.632Z,16.90
2018-06-17T05:13:26.761Z,16.90
2018-06-17T05:15:56.825Z,16.80
2018-06-17T05:18:26.955Z,16.90
2018-06-17T05:20:57.088Z,16.80
2018-06-17T05:23:27.212Z,16.80
2018-06-17T05:25:57.327Z,16.90
2018-06-17T05:28:27.476Z,17.00
2018-06-17T05:30:57.603Z,17.00
2018-06-17T05:33:27.718Z,17.20
2018-06-17T05:35:57.864Z,17.20
2018-06-17T05:38:27.971Z,17.20
2018-06-17T05:40:58.144Z,17.20
2018-06-17T05:43:28.475Z,17.30
2018-06-17T05:45:58.660Z,17.20
2018-06-17T05:48:28.771Z,17.20
2018-06-17T05:53:28.525Z,17.30
2018-06-17T05:55:58.641Z,17.20
2018-06-17T05:58:28.756Z,17.10
2018-06-17T06:00:58.860Z,17.20
2018-06-17T06:03:29.080Z,17.30
2018-06-17T06:05:59.321Z,17.30
2018-06-17T06:08:29.417Z,17.40
2018-06-17T06:10:59.519Z,17.50
2018-06-17T06:13:29.668Z,17.50
2018-06-17T06:15:59.784Z,17.60
2018-06-17T06:18:29.888Z,17.60
2018-06-17T06:21:00.033Z,17.70
2018-06-17T06:23:30.093Z,17.80
2018-06-17T06:26:00.212Z,17.90
2018-06-17T06:28:30.280Z,18.20
2018-06-17T06:31:00.434Z,18.30
2018-06-17T06:33:30.543Z,18.30
2018-06-17T06:36:00.674Z,18.40
2018-06-17T06:38:30.803Z,18.50
2018-06-17T06:41:00.988Z,18.60
2018-06-17T06:43:31.111Z,18.70
2018-06-17T06:46:01.279Z,18.70
2018-06-17T06:48:31.394Z,18.80
2018-06-17T06:51:01.616Z,18.70
2018-06-17T06:53:31.638Z,18.70
2018-06-17T06:56:01.770Z,18.80
2018-06-17T06:58:31.868Z,18.70
2018-06-17T07:01:02.040Z,18.90
2018-06-17T07:03:43.173Z,18.90
2018-06-17T07:06:24.460Z,19.00
2018-06-17T07:09:06.128Z,19.30
2018-06-17T07:11:36.236Z,19.50
2018-06-17T07:14:06.328Z,19.50
2018-06-17T07:16:47.485Z,19.30
2018-06-17T07:19:17.560Z,19.20
2018-06-17T07:21:47.632Z,19.30
2018-06-17T07:24:17.728Z,19.20
2018-06-17T07:26:58.916Z,19.20
2018-06-17T07:29:42.613Z,19.50
2018-06-17T07:32:12.762Z,19.40
2018-06-17T07:34:42.907Z,19.60
2018-06-17T07:37:13.064Z,19.60
2018-06-17T07:40:19.388Z,19.10
2018-06-17T07:42:50.163Z,19.20
2018-06-17T07:45:20.348Z,19.00
2018-06-17T07:47:51.296Z,19.00
2018-06-17T07:50:32.416Z,19.10
2018-06-17T07:53:13.500Z,19.40
2018-06-17T07:55:43.596Z,19.50
2018-06-17T07:58:14.169Z,19.70
2018-06-17T08:00:44.292Z,19.80
2018-06-17T08:03:14.436Z,20.10
2018-06-17T08:05:44.548Z,20.50
2018-06-17T08:08:14.654Z,20.60
2018-06-17T08:10:44.781Z,20.80
2018-06-17T08:13:14.942Z,20.70
2018-06-17T08:15:45.078Z,20.70
2018-06-17T08:18:15.212Z,20.70
2018-06-17T08:20:45.320Z,20.70
2018-06-17T08:23:15.468Z,20.40
2018-06-17T08:25:45.580Z,20.90
2018-06-17T08:28:15.736Z,20.90
2018-06-17T08:30:45.853Z,20.50
2018-06-17T08:33:15.956Z,20.10
2018-06-17T08:35:46.098Z,20.00
2018-06-17T08:38:16.924Z,20.20
2018-06-17T08:40:47.059Z,20.20
2018-06-17T08:43:17.224Z,20.40
2018-06-17T08:45:47.349Z,20.30
2018-06-17T08:48:17.440Z,20.50
2018-06-17T08:50:47.605Z,20.90
2018-06-17T08:53:17.856Z,21.20
2018-06-17T08:55:48.009Z,21.30
2018-06-17T08:58:18.151Z,21.60
2018-06-17T09:00:48.292Z,21.60
2018-06-17T09:03:18.572Z,21.80
2018-06-17T09:05:49.034Z,22.00
2018-06-17T09:08:19.164Z,22.00
2018-06-17T09:10:49.352Z,22.10
2018-06-17T09:13:19.500Z,22.00
2018-06-17T09:15:49.740Z,22.10
2018-06-17T09:18:19.907Z,22.10
2018-06-17T09:20:49.997Z,22.00
2018-06-17T09:23:20.372Z,22.00
2018-06-17T09:25:50.509Z,22.00
2018-06-17T09:28:20.641Z,22.00
2018-06-17T09:30:50.788Z,22.10
2018-06-17T09:33:20.952Z,22.50
2018-06-17T09:35:51.055Z,22.70
2018-06-17T09:38:21.158Z,22.70
2018-06-17T09:40:51.260Z,22.90
2018-06-17T09:43:21.385Z,22.80
2018-06-17T09:45:51.700Z,22.90
2018-06-17T09:48:21.866Z,22.80
2018-06-17T09:50:51.993Z,22.60
2018-06-17T09:53:22.224Z,22.80
2018-06-17T09:55:52.334Z,22.70
2018-06-17T09:58:22.431Z,22.80
2018-06-17T10:00:52.519Z,22.60
2018-06-17T10:03:22.643Z,22.60
2018-06-17T10:05:52.738Z,22.20
2018-06-17T10:08:22.823Z,22.40
2018-06-17T10:11:02.307Z,22.60
2018-06-17T10:13:41.930Z,22.30
2018-06-17T10:16:12.459Z,22.60
2018-06-17T10:18:42.773Z,22.70
2018-06-17T10:21:12.904Z,22.80
2018-06-17T10:23:42.972Z,22.80
2018-06-17T10:26:13.092Z,22.60
2018-06-17T10:28:43.163Z,22.40
2018-06-17T10:31:13.271Z,22.50
2018-06-17T10:33:43.409Z,22.70
2018-06-17T10:36:13.585Z,22.70
2018-06-17T10:38:43.728Z,21.90
2018-06-17T10:41:13.865Z,21.40
2018-06-17T10:43:43.936Z,21.80
2018-06-17T10:46:14.080Z,21.90
2018-06-17T10:48:44.336Z,21.80
2018-06-17T10:51:14.461Z,22.00
2018-06-17T10:53:44.641Z,21.60
2018-06-17T10:56:14.741Z,21.40
2018-06-17T10:58:44.964Z,21.40
2018-06-17T11:01:15.099Z,21.00
2018-06-17T11:03:45.240Z,20.60
2018-06-17T11:06:15.368Z,20.60
2018-06-17T11:08:45.471Z,20.00
2018-06-17T11:11:15.585Z,19.80
2018-06-17T11:13:45.708Z,19.50
2018-06-17T11:16:15.768Z,19.60
2018-06-17T11:18:45.874Z,19.20
2018-06-17T11:21:16.008Z,19.10
2018-06-17T11:23:46.152Z,19.10
2018-06-17T11:26:16.264Z,19.20
2018-06-17T11:28:46.364Z,19.00
2018-06-17T11:31:16.443Z,19.00
2018-06-17T11:36:16.116Z,19.40
2018-06-17T11:38:46.243Z,19.70
2018-06-17T11:41:16.340Z,19.30
2018-06-17T11:43:46.484Z,18.80
2018-06-17T11:46:16.657Z,18.60
2018-06-17T11:48:47.038Z,18.80
2018-06-17T11:51:17.105Z,18.80
2018-06-17T11:53:47.263Z,18.50
2018-06-17T11:56:17.364Z,18.60
2018-06-17T11:58:47.488Z,18.70
2018-06-17T12:01:17.695Z,18.40
2018-06-17T12:03:47.834Z,18.40
2018-06-17T12:06:17.992Z,18.30
2018-06-17T12:08:48.149Z,18.30
2018-06-17T12:11:18.244Z,18.40
2018-06-17T12:13:48.707Z,18.40
2018-06-17T12:16:18.921Z,18.20
2018-06-17T12:18:49.067Z,18.20
2018-06-17T12:21:19.148Z,18.30
2018-06-17T12:23:49.305Z,18.30
2018-06-17T12:28:49.176Z,18.10
2018-06-17T12:31:19.284Z,17.70
2018-06-17T12:33:49.535Z,17.80
2018-06-17T12:36:19.620Z,17.90
2018-06-17T12:38:49.840Z,17.70
2018-06-17T12:41:20.032Z,17.80
2018-06-17T12:43:50.156Z,18.10
2018-06-17T12:46:20.384Z,18.00
2018-06-17T12:48:50.532Z,18.20
2018-06-17T12:51:20.676Z,18.60
2018-06-17T12:53:50.837Z,18.90
2018-06-17T12:56:20.908Z,19.00
2018-06-17T12:58:51.024Z,18.70
2018-06-17T13:01:21.184Z,18.90
2018-06-17T13:03:51.305Z,19.10
2018-06-17T13:06:21.400Z,19.20
2018-06-17T13:08:51.495Z,19.10
2018-06-17T13:11:21.588Z,19.10
2018-06-17T13:13:51.612Z,19.20
2018-06-17T13:18:51.300Z,18.80
2018-06-17T13:21:21.432Z,18.90
2018-06-17T13:23:51.516Z,19.00
2018-06-17T13:26:21.632Z,19.10
2018-06-17T13:28:51.760Z,19.00
2018-06-17T13:31:21.862Z,19.00
2018-06-17T13:33:51.938Z,19.00
2018-06-17T13:36:22.282Z,19.00
2018-06-17T13:38:52.292Z,18.90
2018-06-17T13:41:22.460Z,18.90
2018-06-17T13:43:52.469Z,18.90
2018-06-17T13:48:52.192Z,19.00
2018-06-17T13:51:22.244Z,19.00
2018-06-17T13:53:52.319Z,19.10
2018-06-17T13:56:22.438Z,19.10
2018-06-17T13:58:52.488Z,19.20
2018-06-17T14:01:22.612Z,19.20
2018-06-17T14:03:52.744Z,19.20
2018-06-17T14:06:22.868Z,18.90
2018-06-17T14:08:53.005Z,18.70
2018-06-17T14:11:23.108Z,18.10
2018-06-17T14:13:53.220Z,18.10
2018-06-17T14:16:23.297Z,18.20
2018-06-17T14:18:53.815Z,18.20
2018-06-17T14:21:23.796Z,18.30
2018-06-17T14:23:53.804Z,18.40
2018-06-17T14:26:23.966Z,18.50
2018-06-17T14:28:54.144Z,18.50
2018-06-17T14:31:24.260Z,18.40
2018-06-17T14:33:54.708Z,18.40
2018-06-17T14:36:24.740Z,18.50
2018-06-17T14:38:54.924Z,18.50
2018-06-17T14:41:24.968Z,18.40
2018-06-17T14:44:00.217Z,18.50
2018-06-17T14:46:35.454Z,18.50
2018-06-17T14:49:10.976Z,18.40
2018-06-17T14:51:46.401Z,18.30
2018-06-17T14:54:16.585Z,18.20
2018-06-17T14:56:46.732Z,18.20
2018-06-17T14:59:16.852Z,18.10
2018-06-17T15:01:46.952Z,18.10
2018-06-17T15:04:17.070Z,17.90
2018-06-17T15:06:47.238Z,17.80
2018-06-17T15:09:17.481Z,17.80
2018-06-17T15:11:47.725Z,17.80
2018-06-17T15:14:17.868Z,17.90
2018-06-17T15:19:17.746Z,17.70
2018-06-17T15:21:47.916Z,17.70
2018-06-17T15:24:18.068Z,17.70
2018-06-17T15:26:48.244Z,17.80
2018-06-17T15:29:18.349Z,17.80
2018-06-17T15:31:53.853Z,17.90
2018-06-17T15:34:29.214Z,17.90
2018-06-17T15:37:04.494Z,17.80
2018-06-17T15:39:39.732Z,17.60
2018-06-17T15:42:09.854Z,17.70
2018-06-17T15:44:39.953Z,17.60
2018-06-17T15:47:10.040Z,17.60
2018-06-17T15:49:40.071Z,17.60
2018-06-17T15:52:10.596Z,17.60
2018-06-17T15:54:40.976Z,17.60
2018-06-17T15:57:11.115Z,17.60
2018-06-17T15:59:41.121Z,17.60
2018-06-17T16:02:11.234Z,17.50
2018-06-17T16:04:41.333Z,17.50
2018-06-17T16:07:11.492Z,17.40
2018-06-17T16:09:41.774Z,17.40
2018-06-17T16:12:17.164Z,17.40
2018-06-17T16:16:54.868Z,17.40
2018-06-17T16:19:30.465Z,17.30
2018-06-17T16:22:00.549Z,17.20
2018-06-17T16:24:30.730Z,17.20
2018-06-17T16:29:30.553Z,17.10
2018-06-17T16:34:30.284Z,17.10
2018-06-17T16:37:00.344Z,17.20
2018-06-17T16:39:30.479Z,17.20
2018-06-17T16:42:00.538Z,17.20
2018-06-17T16:44:30.649Z,17.20
2018-06-17T16:47:00.732Z,17.10
2018-06-17T16:49:30.872Z,17.00
2018-06-17T16:52:06.268Z,17.00
2018-06-17T16:57:16.339Z,16.90
2018-06-17T16:59:57.076Z,16.80
2018-06-17T17:02:27.233Z,16.80
2018-06-17T17:04:57.913Z,16.80
2018-06-17T17:07:28.008Z,16.80
2018-06-17T17:09:58.140Z,16.90
2018-06-17T17:12:28.283Z,16.90
2018-06-17T17:14:58.424Z,16.90
2018-06-17T17:17:28.523Z,16.90
2018-06-17T17:19:58.552Z,16.80
2018-06-17T17:22:28.624Z,16.90
2018-06-17T17:24:58.796Z,16.90
2018-06-17T17:27:28.848Z,16.90
2018-06-17T17:29:58.971Z,16.90
2018-06-17T17:32:34.264Z,17.00
2018-06-17T17:35:09.616Z,17.00
2018-06-17T17:37:45.072Z,17.00
2018-06-17T17:40:20.298Z,17.00
2018-06-17T17:42:50.468Z,17.00
2018-06-17T17:45:22.339Z,16.90
2018-06-17T17:47:52.544Z,16.90
2018-06-17T17:50:22.588Z,16.90
2018-06-17T17:52:52.815Z,16.90
2018-06-17T17:55:24.003Z,16.80
2018-06-17T17:57:54.079Z,16.70
2018-06-17T18:00:24.164Z,16.80
2018-06-17T18:02:54.299Z,16.70
2018-06-17T18:05:24.428Z,16.70
2018-06-17T18:07:54.529Z,16.70
2018-06-17T18:10:24.647Z,16.80
2018-06-17T18:12:54.737Z,16.80
2018-06-17T18:15:32.459Z,16.80
2018-06-17T18:18:08.687Z,16.80
2018-06-17T18:20:43.580Z,16.80
2018-06-17T18:23:14.409Z,16.80
2018-06-17T18:25:53.729Z,16.80
2018-06-17T18:28:29.846Z,16.80
2018-06-17T18:31:06.150Z,16.80
2018-06-17T18:33:47.434Z,16.80
2018-06-17T18:36:20.705Z,16.80
2018-06-17T18:38:51.975Z,16.70
2018-06-17T18:41:22.747Z,16.70
2018-06-17T18:43:52.816Z,16.60
2018-06-17T18:46:22.936Z,16.60
2018-06-17T18:48:53.092Z,16.60
2018-06-17T18:51:23.200Z,16.60
2018-06-17T18:53:53.337Z,16.60
2018-06-17T18:56:23.508Z,16.50
2018-06-17T18:58:53.611Z,16.50
2018-06-17T19:01:23.835Z,16.50
2018-06-17T19:03:53.972Z,16.50
2018-06-17T19:06:24.088Z,16.50
2018-06-17T19:08:59.481Z,16.50
2018-06-17T19:11:34.784Z,16.60
2018-06-17T19:14:10.260Z,16.50
2018-06-17T19:16:46.244Z,16.50
2018-06-17T19:19:16.410Z,16.60
2018-06-17T19:21:46.603Z,16.70
2018-06-17T19:24:16.824Z,16.60
2018-06-17T19:26:46.996Z,16.60
2018-06-17T19:29:17.147Z,16.60
2018-06-17T19:31:47.290Z,16.60
2018-06-17T19:34:17.420Z,16.60
2018-06-17T19:36:47.484Z,16.70
2018-06-17T19:39:17.685Z,16.60
2018-06-17T19:41:47.876Z,16.70
2018-06-17T19:44:18.111Z,16.70
2018-06-17T19:46:48.240Z,16.70
2018-06-17T19:49:18.401Z,16.70
2018-06-17T19:51:53.629Z,16.60
2018-06-17T19:54:28.862Z,16.60
2018-06-17T19:57:04.235Z,16.60
2018-06-17T19:59:39.624Z,16.60
2018-06-17T20:02:09.729Z,16.60
2018-06-17T20:04:39.823Z,16.60
2018-06-17T20:07:10.004Z,16.60
2018-06-17T20:09:40.130Z,16.60
2018-06-17T20:12:10.235Z,16.60
2018-06-17T20:14:40.374Z,16.60
2018-06-17T20:17:10.582Z,16.60
2018-06-17T20:19:40.677Z,16.60
2018-06-17T20:22:10.785Z,16.60
2018-06-17T20:24:40.903Z,16.60
2018-06-17T20:27:11.012Z,16.60
2018-06-17T20:29:41.461Z,16.60
2018-06-17T20:32:16.872Z,16.70
2018-06-17T20:34:53.167Z,16.60
2018-06-17T20:37:28.506Z,16.70
2018-06-17T20:40:03.799Z,16.60
2018-06-17T20:42:39.197Z,16.60
2018-06-17T20:45:09.242Z,16.60
2018-06-17T20:47:39.462Z,16.60
2018-06-17T20:50:09.574Z,16.60
2018-06-17T20:52:39.676Z,16.60
2018-06-17T20:55:09.732Z,16.60
2018-06-17T20:57:39.800Z,16.50
2018-06-17T21:00:10.016Z,16.50
2018-06-17T21:02:40.080Z,16.50
2018-06-17T21:05:10.160Z,16.50
2018-06-17T21:07:40.260Z,16.50
2018-06-17T21:10:10.357Z,16.50
2018-06-17T21:12:40.380Z,16.50
2018-06-17T21:15:15.698Z,16.40
2018-06-17T21:17:46.617Z,16.40
2018-06-17T21:20:21.807Z,16.40
2018-06-17T21:22:57.032Z,16.40
2018-06-17T21:25:32.228Z,16.30
2018-06-17T21:28:02.708Z,16.30
2018-06-17T21:30:32.836Z,16.30
2018-06-17T21:33:02.940Z,16.30
2018-06-17T21:35:33.036Z,16.30
2018-06-17T21:38:03.085Z,16.30
2018-06-17T21:40:33.095Z,16.30
2018-06-17T21:43:03.188Z,16.30
2018-06-17T21:45:33.229Z,16.20
2018-06-17T21:48:03.294Z,16.20
2018-06-17T21:50:33.332Z,16.20
2018-06-17T21:53:03.411Z,16.20
2018-06-17T21:55:33.464Z,16.20
2018-06-17T21:58:03.476Z,16.20
2018-06-17T22:00:33.568Z,16.20
2018-06-17T22:03:03.628Z,16.20
2018-06-17T22:05:33.672Z,16.20
2018-06-17T22:08:08.944Z,16.20
2018-06-17T22:10:44.316Z,16.10
2018-06-17T22:13:14.360Z,16.10
2018-06-17T22:15:49.636Z,16.10
2018-06-17T22:18:19.700Z,16.10
2018-06-17T22:20:49.732Z,16.10
2018-06-17T22:23:19.824Z,16.00
2018-06-17T22:25:49.960Z,16.00
2018-06-17T22:28:20.021Z,16.00
2018-06-17T22:30:50.160Z,15.90
2018-06-17T22:33:20.265Z,15.90
2018-06-17T22:35:50.312Z,15.80
2018-06-17T22:38:20.432Z,15.80
2018-06-17T22:40:50.453Z,15.80
2018-06-17T22:43:20.536Z,15.70
2018-06-17T22:45:50.628Z,15.60
2018-06-17T22:48:20.768Z,15.60
2018-06-17T22:50:50.844Z,15.60
2018-06-17T22:53:31.864Z,15.60
2018-06-17T22:56:04.599Z,15.60
2018-06-17T22:58:39.856Z,15.60
2018-06-17T23:03:19.224Z,15.60
2018-06-17T23:05:54.436Z,15.60
2018-06-17T23:08:29.735Z,15.50
2018-06-17T23:10:59.844Z,15.40
2018-06-17T23:13:29.881Z,15.40
2018-06-17T23:15:59.968Z,15.40
2018-06-17T23:18:30.191Z,15.30
2018-06-17T23:21:00.264Z,15.20
2018-06-17T23:23:30.288Z,15.20
2018-06-17T23:26:00.368Z,15.20
2018-06-17T23:28:30.376Z,15.20
2018-06-17T23:31:00.467Z,15.10
2018-06-17T23:33:30.488Z,15.10
2018-06-17T23:36:00.512Z,15.10
2018-06-17T23:38:30.564Z,15.10
2018-06-17T23:41:00.588Z,15.00
2018-06-17T23:43:30.649Z,14.90
2018-06-17T23:46:05.988Z,14.90
2018-06-17T23:48:41.212Z,14.90
2018-06-17T23:51:16.624Z,14.80
2018-06-17T23:53:51.916Z,14.80
2018-06-17T23:56:22.059Z,14.80
2018-06-17T23:58:52.136Z,14.80
